Airfield :
LOGIN :

Register | Disclaimer

   EN    FR    IT 

 










Legend :    VFR   Marginal VFR   IFR   Intensive IFR   Very Intensive IFR
Visi :
Ceiling :
>= 8 km
>= 3000ft
5 to 8 km
1000 to 3000 ft
1500m to 5 km
500 to 1000 ft
800 to 1500m
200 to 500 ft
< 800m
< 200 ft
Symbols :   Thunderstorms  Fog  Heavy snow  Heavy precipitations  Wind > 20 kt
SIGMETs :     Misc.  Thunderstorms  Icing  Turbulence  Mountain Waves  Volcanic Ashes






- Airport Elevation : 65 ft
- IATA code : ADA


LTAF - Adana

CURRENT METAR :
  • 291720Z 32003KT 4000 BR SCT035 BKN100 11/10 Q1019 NOSIG

EXPIRED METARs :
  • 291650Z 21001KT 4500 BR SCT035 BKN100 11/09 Q1019 NOSIG RMK RWY23 25003KT
  • 291620Z 18003KT 9999 SCT035 BKN100 12/09 Q1019 BECMG TL1700 4000 BR
  • 291550Z 21003KT 9999 SCT035 BKN100 12/08 Q1019 BECMG TL1700 4000 BR RMK RWY23 23003KT
  • 291520Z 20004KT 9999 SCT035 BKN100 13/08 Q1018 BECMG TL1700 4000 BR
  • 291450Z 20006KT 9999 SCT035 BKN100 14/08 Q1018 BECMG 4000 BR

TAF TAF LTAF
Valid from the 29 at 18:00 until the 30 at 18:00 UTC


291640Z 2918/3018 VRB02KT 4000 -SHRA BR SCT035 BKN100
BECMG 3006/3008 9999 NSW
BECMG 3015/3017 4000 BR



MET'MAP, your aeronautical weather chart ! - Copyright ORBIFLY December 2007 - Disclaimer

ORBIFLY MET'MAP TEAM :

Programming & Development : Alexandra Zaïnal
Concept & original design : Baudouin d'Aumeries
Assistance for programming : Marc-Olivier Méhu
Technical & hardware support : Manuel Goepfert

Contact : metmap@orbifly.com




SOURCES & CREDITS :

   NOAA